• Join FlightAware (Why Join?)
  • Login
  • US Flag 
10:47AM EDT


 

Airport Tracker/Info


-or-


 

Live Flight TrackerFlight Track Log ✈ SWA22 ✈ 12-May-2013 ✈ KHRL - KHOU

Flight Track Log - Related Links

Times and Time Zones

All times are in EDT time to prevent confusion due to time zone crossing. See the SWA22 flight status page for this flight to view local times or setup timezone preferences in your user account.

Time Position Orientation Groundspeed Altitude Reporting Facility
EDT Latitude Longitude Course Direction KTS MPH feet Rate Location/Type
11:01AM 26.2397 -97.6586 349° North 139 160 600  Level Houston Center
11:01AM 26.2525 -97.6614 349° North 151 174 1,000 3,240 Climbing Houston Center
11:02AM 26.3156 -97.6789 346° North 229 264 4,900 3,300 Climbing Houston Center
11:04AM 26.3908 -97.6697 North 261 300 8,600 2,760 Climbing Houston Center
11:05AM 26.4681 -97.6294 25° Northeast 296 341 11,300 3,360 Climbing Houston Center
11:06AM 26.5600 -97.5742 28° Northeast 347 399 15,500 3,360 Climbing Houston Center
11:07AM 26.6458 -97.5192 30° Northeast 355 409 18,200 2,580 Climbing Houston Center
11:08AM 26.7406 -97.4642 27° Northeast 380 437 20,800 2,400 Climbing Houston Center
11:09AM 26.8422 -97.4117 25° Northeast 402 463 23,100 2,220 Climbing Houston Center
11:10AM 26.9347 -97.3622 25° Northeast 412 474 25,400 2,700 Climbing Houston Center
11:11AM 27.0553 -97.2869 29° Northeast 414 476 28,700 2,220 Climbing Houston Center
11:12AM 27.1492 -97.2075 37° Northeast 420 483 30,000 1,260 Climbing Houston Center
11:13AM 27.2517 -97.1244 36° Northeast 441 507 31,300 1,320 Climbing Houston Center
11:14AM 27.3556 -97.0414 35° Northeast 455 524 32,800 900 Climbing Houston Center
11:15AM 27.4683 -96.9778 27° Northeast 479 551 33,200 1,020 Climbing Houston Center
11:16AM 27.6222 -96.9019 24° Northeast 500 575 35,000 840 Climbing Houston Center
11:17AM 27.7497 -96.8361 25° Northeast 505 581 35,000  Level Houston Center
11:18AM 27.8767 -96.7714 24° Northeast 502 578 35,000  Level Houston Center
11:19AM 28.0019 -96.7072 24° Northeast 498 573 35,000  Level Houston Center
11:20AM 28.1278 -96.6439 24° Northeast 496 571 35,000  Level Houston Center
11:21AM 28.2528 -96.5797 24° Northeast 495 570 35,000  Level Houston Center
11:22AM 28.3792 -96.5164 24° Northeast 496 571 35,000 -1,800 Level Houston Center
11:23AM 28.5303 -96.4394 24° Northeast 496 571 31,400 -3,180 Descending Houston Center
11:24AM 28.6547 -96.3744 25° Northeast 495 570 28,500 -3,000 Descending Houston Center
11:25AM 28.7744 -96.3117 25° Northeast 480 552 25,200 -3,300 Descending Houston Center
11:26AM 28.8931 -96.2503 24° Northeast 473 544 21,800 -3,180 Descending Houston Center
11:27AM 29.0064 -96.1919 24° Northeast 452 520 18,700 -2,700 Descending Houston Center
11:28AM 29.1108 -96.1356 25° Northeast 421 484 16,300 -3,180 Descending Houston Center
11:29AM 29.2289 -96.0756 24° Northeast 392 451 12,200 -3,360 Descending Houston Center
11:30AM 29.2547 -96.0556 34° Northeast 383 441 11,900 -420 Descending Houston Center
11:30AM 29.2908 -95.9889 58° Northeast 368 423 11,800 -600 Descending Houston Center
11:31AM 29.3025 -95.9544 69° East 365 420 11,300 -1,200 Descending Houston Center
11:31AM 29.3250 -95.8833 70° East 358 412 10,600 -1,140 Descending Houston Center
11:32AM 29.3392 -95.8447 67° East 354 407 10,200 -720 Descending Houston Center
11:33AM 29.3711 -95.7550 68° East 329 379 9,800 -960 Descending Houston Center
11:33AM 29.4006 -95.6928 61° Northeast 301 346 8,500 -1,680 Descending Houston Center
11:34AM 29.4392 -95.6142 61° Northeast 287 330 6,600 -2,100 Descending Houston Center
11:36AM 29.4853 -95.5219 60° Northeast 279 321 4,300 -2,040 Descending Houston Center
11:37AM 29.5261 -95.4506 57° Northeast 272 313 2,500 -1,320 Descending Houston Center
11:38AM 29.5631 -95.3850 57° Northeast 260 299 1,600 -600 Descending Houston Center
11:39AM 29.5931 -95.3358 55° Northeast 215 247 1,300 -540 Descending Houston Center
11:40AM 29.6239 -95.3000 45° Northeast 121 139 500 -600 Descending Houston Center
11:41AM 29.6453 -95.2794 40° Northeast 137 158 100 -480 Descending Houston Center